Time;durP1;ratioP1;P1;durP2;ratioP2;P2;SDS_P1;SDS_P2;PMS_P1;PMS_P2;Temp;Humidity;BMP_temperature;BMP_pressure;BME280_temperature;BME280_humidity;BME280_pressure;Samples;Min_cycle;Max_cycle;Signal;HPM_P1;HPM_P2
2023/04/11 00:00:01;;;;;;;9.27;1.45;;;5.80;99.90;;;;;;5010762;28;20026;-89
2023/04/11 00:02:29;;;;;;;7.68;1.20;;;5.80;99.90;;;;;;5011645;28;20479;-87
2023/04/11 00:04:56;;;;;;;6.28;1.40;;;5.80;99.90;;;;;;5015683;28;20039;-87
2023/04/11 00:07:21;;;;;;;5.80;1.08;;;5.80;99.90;;;;;;5014097;28;20121;-89
2023/04/11 00:09:47;;;;;;;7.78;1.50;;;5.90;99.90;;;;;;5015435;28;20121;-89
2023/04/11 00:12:12;;;;;;;8.00;1.60;;;5.80;99.90;;;;;;5031735;28;20026;-89
2023/04/11 00:14:44;;;;;;;11.65;1.40;;;5.80;99.90;;;;;;5013466;28;20033;-89
2023/04/11 00:17:11;;;;;;;6.65;1.15;;;5.80;99.90;;;;;;5014439;28;20051;-87
2023/04/11 00:19:37;;;;;;;7.80;1.30;;;5.80;99.90;;;;;;5015634;28;20071;-88
2023/04/11 00:22:03;;;;;;;7.75;1.15;;;5.80;99.90;;;;;;5015396;28;20038;-88
2023/04/11 00:24:29;;;;;;;5.85;1.50;;;5.70;99.90;;;;;;5015034;28;20029;-88
2023/04/11 00:26:56;;;;;;;8.98;1.40;;;5.70;99.90;;;;;;5015885;28;20053;-87
2023/04/11 00:29:22;;;;;;;9.25;1.40;;;5.70;99.90;;;;;;5014683;28;20049;-87
2023/04/11 00:31:48;;;;;;;10.50;1.10;;;5.70;99.90;;;;;;5015141;28;20022;-88
2023/04/11 00:34:13;;;;;;;11.93;2.42;;;5.70;99.90;;;;;;5015718;28;20026;-87
2023/04/11 00:36:40;;;;;;;6.07;1.50;;;5.70;99.90;;;;;;5014218;28;20456;-88
2023/04/11 00:39:07;;;;;;;7.57;1.60;;;5.70;99.90;;;;;;5024437;28;20053;-86
2023/04/11 00:41:33;;;;;;;5.93;1.00;;;5.70;99.90;;;;;;5032858;28;20499;-87
2023/04/11 00:43:59;;;;;;;8.18;1.27;;;5.60;99.90;;;;;;5033148;28;20029;-87
2023/04/11 00:46:25;;;;;;;7.05;0.85;;;5.60;99.90;;;;;;5033391;28;20087;-89
2023/04/11 00:48:51;;;;;;;5.55;1.58;;;5.60;99.90;;;;;;5033903;28;20032;-88
2023/04/11 00:51:17;;;;;;;4.18;0.85;;;5.60;99.90;;;;;;5034152;28;20028;-88
2023/04/11 00:53:44;;;;;;;8.20;1.65;;;5.50;99.90;;;;;;5033988;28;20491;-86
2023/04/11 00:56:10;;;;;;;4.90;0.43;;;5.50;99.90;;;;;;5041344;28;20033;-87
2023/04/11 00:58:38;;;;;;;6.45;1.20;;;5.50;99.90;;;;;;5041807;28;20026;-86
2023/04/11 01:01:08;;;;;;;3.70;0.80;;;5.50;99.90;;;;;;5038402;28;20139;-86
2023/04/11 01:03:38;;;;;;;7.70;1.30;;;5.60;99.90;;;;;;5036928;28;20106;-86
2023/04/11 01:06:06;;;;;;;7.37;1.77;;;5.60;99.90;;;;;;5034680;28;20044;-87
2023/04/11 01:08:33;;;;;;;7.15;1.30;;;5.60;99.90;;;;;;5031929;28;20037;-87
2023/04/11 01:11:04;;;;;;;7.00;1.65;;;5.60;99.90;;;;;;5033509;28;20029;-88
2023/04/11 01:13:31;;;;;;;8.38;1.15;;;5.60;99.90;;;;;;5032676;28;20032;-88
2023/04/11 01:15:57;;;;;;;10.93;1.60;;;5.60;99.90;;;;;;5033524;28;20033;-88
2023/04/11 01:18:24;;;;;;;7.97;1.38;;;5.60;99.90;;;;;;5034701;28;20030;-86
2023/04/11 01:20:50;;;;;;;15.68;1.40;;;5.60;99.90;;;;;;5034793;28;20034;-86
2023/04/11 01:23:23;;;;;;;7.35;1.48;;;5.60;99.90;;;;;;5033188;28;20079;-85
2023/04/11 01:25:49;;;;;;;15.00;2.33;;;5.60;99.90;;;;;;5033444;28;20129;-88
2023/04/11 01:28:15;;;;;;;6.45;1.30;;;5.60;99.90;;;;;;5013975;28;20072;-87
2023/04/11 01:30:40;;;;;;;9.75;1.23;;;5.50;99.90;;;;;;5013116;28;20033;-88
2023/04/11 01:33:06;;;;;;;7.90;1.67;;;5.60;99.90;;;;;;5014430;28;20025;-89
2023/04/11 01:35:32;;;;;;;7.97;1.40;;;5.60;99.90;;;;;;5014541;28;20392;-88
2023/04/11 01:37:57;;;;;;;9.68;1.17;;;5.60;99.90;;;;;;5014138;28;20068;-87
2023/04/11 01:40:23;;;;;;;8.98;1.10;;;5.50;99.90;;;;;;5014702;28;20026;-87
2023/04/11 01:42:50;;;;;;;11.80;1.20;;;5.60;99.90;;;;;;5015092;28;20502;-86
2023/04/11 01:45:17;;;;;;;7.03;1.88;;;5.50;99.90;;;;;;5012996;28;20018;-87
2023/04/11 01:47:46;;;;;;;9.73;1.60;;;5.60;99.90;;;;;;5013383;28;20026;-90
2023/04/11 01:50:11;;;;;;;6.93;1.33;;;5.60;99.90;;;;;;5012225;28;20038;-90
2023/04/11 01:52:37;;;;;;;9.35;1.25;;;5.60;99.90;;;;;;5013313;28;20037;-89
2023/04/11 01:55:03;;;;;;;11.10;1.52;;;5.50;99.90;;;;;;5013875;28;20037;-86
2023/04/11 01:57:29;;;;;;;8.40;1.45;;;5.50;99.90;;;;;;5012881;28;20022;-89
2023/04/11 01:59:54;;;;;;;8.95;1.40;;;5.50;99.90;;;;;;5013462;28;20037;-87
2023/04/11 02:02:20;;;;;;;11.02;1.30;;;5.50;99.90;;;;;;5013708;28;20116;-88
2023/04/11 02:04:45;;;;;;;12.35;1.92;;;5.60;99.90;;;;;;5012507;28;20467;-88
2023/04/11 02:07:11;;;;;;;10.15;1.23;;;5.50;99.90;;;;;;5014056;28;20033;-87
2023/04/11 02:09:37;;;;;;;8.00;1.63;;;5.50;99.90;;;;;;5012780;28;20038;-87
2023/04/11 02:12:03;;;;;;;9.85;1.75;;;5.50;99.90;;;;;;5014300;28;20037;-88
2023/04/11 02:14:43;;;;;;;10.20;1.77;;;5.50;99.90;;;;;;5013578;28;20057;-87
2023/04/11 02:17:10;;;;;;;9.50;1.25;;;5.60;99.90;;;;;;5029840;28;20514;-87
2023/04/11 02:19:44;;;;;;;6.65;1.65;;;5.60;99.90;;;;;;5031797;28;20056;-87
2023/04/11 02:22:10;;;;;;;10.75;1.65;;;5.60;99.90;;;;;;5033210;28;20026;-85
2023/04/11 02:24:36;;;;;;;8.20;1.30;;;5.60;99.90;;;;;;5032076;28;20018;-89
2023/04/11 02:27:02;;;;;;;8.20;1.27;;;5.50;99.90;;;;;;5032615;28;20056;-86
2023/04/11 02:29:28;;;;;;;10.77;1.27;;;5.50;99.90;;;;;;5031983;28;20515;-87
2023/04/11 02:31:53;;;;;;;3.75;0.70;;;5.50;99.90;;;;;;5033137;28;20018;-89
2023/04/11 02:34:19;;;;;;;8.55;1.17;;;5.50;99.90;;;;;;5032824;28;20110;-88
2023/04/11 02:36:45;;;;;;;9.70;1.30;;;5.50;99.90;;;;;;5033000;28;20193;-89
2023/04/11 02:39:12;;;;;;;9.07;1.35;;;5.50;99.90;;;;;;5032696;28;20021;-88
2023/04/11 02:41:38;;;;;;;8.60;1.48;;;5.50;99.90;;;;;;5032679;28;20029;-87
2023/04/11 02:44:04;;;;;;;13.38;1.02;;;5.50;99.90;;;;;;5033256;28;20041;-88
2023/04/11 02:46:30;;;;;;;3.00;1.08;;;5.50;99.90;;;;;;5031718;28;20399;-87
2023/04/11 02:48:55;;;;;;;9.70;1.45;;;5.40;99.90;;;;;;5031154;28;20422;-87
2023/04/11 02:51:21;;;;;;;10.10;1.00;;;5.40;99.90;;;;;;5031167;28;20383;-87
2023/04/11 02:53:46;;;;;;;9.93;1.60;;;5.40;99.90;;;;;;5032319;28;20022;-86
2023/04/11 02:56:17;;;;;;;8.70;1.35;;;5.40;99.90;;;;;;5032190;28;20021;-88
2023/04/11 02:58:46;;;;;;;8.82;1.50;;;5.40;99.90;;;;;;5032190;28;20064;-88
2023/04/11 03:01:13;;;;;;;9.00;1.73;;;5.40;99.90;;;;;;5031268;28;20033;-88
2023/04/11 03:03:40;;;;;;;8.02;1.40;;;5.30;99.90;;;;;;5031396;28;20379;-88
2023/04/11 03:06:06;;;;;;;12.50;1.40;;;5.30;99.90;;;;;;5033039;28;20435;-87
2023/04/11 03:08:34;;;;;;;11.80;1.67;;;5.30;99.90;;;;;;5032615;28;20507;-88
2023/04/11 03:11:01;;;;;;;6.32;0.98;;;5.30;99.90;;;;;;5032070;28;20032;-87
2023/04/11 03:13:26;;;;;;;9.02;2.17;;;5.30;99.90;;;;;;5033059;28;20018;-87
2023/04/11 03:15:52;;;;;;;8.85;1.98;;;5.30;99.90;;;;;;5033377;28;20037;-88
2023/04/11 03:18:19;;;;;;;3.70;1.08;;;5.30;99.90;;;;;;5031235;28;20068;-88
2023/04/11 03:20:45;;;;;;;10.13;0.90;;;5.30;99.90;;;;;;5032593;28;20394;-88
2023/04/11 03:23:11;;;;;;;5.45;0.70;;;5.20;99.90;;;;;;5032510;28;20017;-89
2023/04/11 03:25:37;;;;;;;7.50;1.40;;;5.20;99.90;;;;;;5030837;28;20437;-88
2023/04/11 03:28:03;;;;;;;10.27;1.20;;;5.30;99.90;;;;;;5012702;28;20036;-88
2023/04/11 03:30:29;;;;;;;9.85;1.00;;;5.20;99.90;;;;;;5011960;28;20144;-88
2023/04/11 03:32:59;;;;;;;16.98;1.77;;;5.20;99.90;;;;;;5011478;28;20145;-87
2023/04/11 03:35:24;;;;;;;5.32;1.23;;;5.20;99.90;;;;;;5013459;28;20120;-89
2023/04/11 03:37:50;;;;;;;10.32;1.27;;;5.20;99.90;;;;;;5017622;28;20052;-88
2023/04/11 03:40:17;;;;;;;7.68;1.42;;;5.20;99.90;;;;;;5015366;28;20037;-89
2023/04/11 03:42:44;;;;;;;6.75;1.05;;;5.20;99.90;;;;;;5016652;28;20498;-89
2023/04/11 03:45:10;;;;;;;8.35;1.63;;;5.20;99.90;;;;;;5016114;28;20037;-87
2023/04/11 03:47:36;;;;;;;14.82;1.70;;;5.10;99.90;;;;;;5016004;28;20022;-87
2023/04/11 03:50:02;;;;;;;15.10;1.23;;;5.10;99.90;;;;;;5015664;28;20049;-88
2023/04/11 03:52:28;;;;;;;12.98;1.92;;;5.10;99.90;;;;;;5015131;28;20559;-86
2023/04/11 03:54:54;;;;;;;3.15;0.80;;;5.10;99.90;;;;;;5014917;28;20057;-86
2023/04/11 03:57:19;;;;;;;6.05;1.17;;;5.10;99.90;;;;;;5015485;28;20054;-88
2023/04/11 03:59:46;;;;;;;5.75;1.17;;;5.10;99.90;;;;;;5016042;28;20104;-87
2023/04/11 04:02:13;;;;;;;6.18;1.25;;;5.10;99.90;;;;;;5016060;28;20056;-87
2023/04/11 04:04:42;;;;;;;5.78;1.38;;;5.00;99.90;;;;;;5014574;28;20108;-86
2023/04/11 04:07:08;;;;;;;4.75;1.65;;;5.00;99.90;;;;;;5014905;28;20116;-87
2023/04/11 04:09:34;;;;;;;16.55;1.52;;;5.00;99.90;;;;;;5014909;28;20092;-88
2023/04/11 04:12:00;;;;;;;6.95;1.10;;;5.00;99.90;;;;;;5015900;28;20046;-86
2023/04/11 04:14:26;;;;;;;10.15;1.77;;;5.00;99.90;;;;;;5016378;28;20100;-88
2023/04/11 04:16:51;;;;;;;4.82;0.73;;;5.00;99.90;;;;;;5014568;28;20112;-86
2023/04/11 04:19:17;;;;;;;8.32;0.98;;;5.00;99.90;;;;;;5014405;28;20036;-87
2023/04/11 04:21:44;;;;;;;11.18;1.15;;;5.00;99.90;;;;;;5015719;28;20040;-87
2023/04/11 04:24:11;;;;;;;17.77;1.83;;;5.00;99.90;;;;;;5014438;28;20022;-87
2023/04/11 04:26:38;;;;;;;9.63;1.25;;;5.10;99.90;;;;;;5015109;28;20041;-88
2023/04/11 04:29:04;;;;;;;9.82;1.42;;;5.10;99.90;;;;;;5013641;28;20033;-89
2023/04/11 04:31:32;;;;;;;5.63;0.75;;;5.10;99.90;;;;;;5014432;28;20030;-86
2023/04/11 04:34:07;;;;;;;10.48;1.27;;;5.00;99.90;;;;;;5013826;28;20479;-85
2023/04/11 04:36:45;;;;;;;5.80;1.13;;;5.00;99.90;;;;;;5014945;28;20028;-86
2023/04/11 04:39:32;;;;;;;7.57;1.02;;;5.10;99.90;;;;;;5014886;28;20479;-87
2023/04/11 04:41:58;;;;;;;14.75;1.67;;;5.00;99.90;;;;;;5014559;28;20022;-85
2023/04/11 04:44:24;;;;;;;12.27;1.70;;;5.00;99.90;;;;;;5015089;28;20022;-88
2023/04/11 04:46:54;;;;;;;5.53;0.90;;;5.00;99.90;;;;;;5014070;28;20033;-88
2023/04/11 04:49:20;;;;;;;15.25;1.70;;;5.00;99.90;;;;;;5013910;28;20573;-87
2023/04/11 04:51:46;;;;;;;6.43;1.20;;;4.90;99.90;;;;;;5016145;28;20026;-87
2023/04/11 04:54:13;;;;;;;10.15;1.25;;;4.90;99.90;;;;;;5015323;28;20041;-87
2023/04/11 04:56:38;;;;;;;8.63;1.63;;;4.90;99.90;;;;;;5014992;28;20022;-88
2023/04/11 04:59:04;;;;;;;6.80;1.20;;;4.90;99.90;;;;;;5016343;28;20030;-86
2023/04/11 05:01:31;;;;;;;6.38;1.00;;;4.90;99.90;;;;;;5018280;28;20053;-89
2023/04/11 05:03:57;;;;;;;9.25;1.42;;;4.80;99.90;;;;;;5017062;28;20049;-88
2023/04/11 05:06:28;;;;;;;10.80;1.77;;;4.80;99.90;;;;;;5016392;28;20037;-87
2023/04/11 05:08:56;;;;;;;12.77;1.50;;;4.80;99.90;;;;;;5013883;28;20388;-87
2023/04/11 05:11:22;;;;;;;9.95;1.45;;;4.80;99.90;;;;;;5016537;28;20022;-87
2023/04/11 05:13:47;;;;;;;14.40;1.63;;;4.80;99.90;;;;;;5015041;28;20508;-86
2023/04/11 05:16:13;;;;;;;8.30;1.40;;;4.80;99.90;;;;;;5015178;28;20051;-87
2023/04/11 05:18:39;;;;;;;6.38;0.93;;;4.80;99.90;;;;;;5015506;28;20317;-87
2023/04/11 05:21:05;;;;;;;13.45;1.30;;;4.80;99.90;;;;;;5016252;28;20491;-87
2023/04/11 05:23:30;;;;;;;10.70;1.42;;;4.80;99.90;;;;;;5014814;28;20514;-88
2023/04/11 05:25:56;;;;;;;12.70;1.52;;;4.80;99.90;;;;;;5014473;28;20026;-87
2023/04/11 05:28:22;;;;;;;12.30;1.80;;;4.90;99.90;;;;;;5015643;28;20037;-88
2023/04/11 05:30:47;;;;;;;5.20;1.27;;;4.80;99.90;;;;;;5014568;28;20029;-87
2023/04/11 05:33:14;;;;;;;8.30;1.50;;;4.90;99.90;;;;;;5016789;28;20049;-88
2023/04/11 05:35:40;;;;;;;12.32;1.58;;;4.80;99.90;;;;;;5015188;28;20653;-88
2023/04/11 05:38:06;;;;;;;12.00;1.70;;;4.80;99.90;;;;;;5017180;28;20493;-88
2023/04/11 05:40:32;;;;;;;10.80;1.88;;;4.80;99.90;;;;;;5016697;28;20037;-87
2023/04/11 05:42:57;;;;;;;10.90;1.40;;;4.80;99.90;;;;;;5015956;28;20037;-88
2023/04/11 05:45:23;;;;;;;12.55;1.55;;;4.90;99.90;;;;;;5014696;28;20494;-88
2023/04/11 05:47:48;;;;;;;15.85;2.05;;;4.90;99.90;;;;;;5014712;28;20498;-87
2023/04/11 05:50:14;;;;;;;6.57;1.17;;;4.90;99.90;;;;;;5014321;28;20041;-87
2023/04/11 05:52:40;;;;;;;14.10;2.55;;;4.90;99.90;;;;;;5013440;28;20034;-89
2023/04/11 05:55:06;;;;;;;14.63;1.50;;;4.90;99.90;;;;;;5018218;28;20030;-87
2023/04/11 05:57:32;;;;;;;12.23;1.50;;;4.90;99.90;;;;;;5033138;28;20052;-88
2023/04/11 06:00:00;;;;;;;13.52;2.53;;;4.90;99.90;;;;;;5033578;28;20026;-87
2023/04/11 06:02:26;;;;;;;9.77;1.60;;;4.90;99.90;;;;;;5034942;28;20109;-88
2023/04/11 06:04:52;;;;;;;8.82;1.42;;;4.90;99.90;;;;;;5034731;28;20083;-86
2023/04/11 06:07:18;;;;;;;9.57;1.42;;;5.00;99.90;;;;;;5034841;28;20021;-88
2023/04/11 06:09:44;;;;;;;4.45;0.65;;;5.00;99.90;;;;;;5034401;28;20056;-88
2023/04/11 06:12:10;;;;;;;13.00;1.58;;;5.00;99.90;;;;;;5034120;28;20108;-87
2023/04/11 06:14:35;;;;;;;12.73;1.65;;;5.00;99.90;;;;;;5034001;28;20029;-88
2023/04/11 06:17:01;;;;;;;11.70;2.17;;;5.10;99.90;;;;;;5032492;28;20590;-88
2023/04/11 06:19:27;;;;;;;13.90;1.65;;;5.10;99.90;;;;;;5032541;28;20029;-88
2023/04/11 06:21:52;;;;;;;13.07;1.85;;;5.10;99.90;;;;;;5033874;28;20104;-87
2023/04/11 06:24:37;;;;;;;7.65;1.65;;;5.20;99.90;;;;;;5032533;28;20026;-86
2023/04/11 06:27:03;;;;;;;14.18;1.52;;;5.20;99.90;;;;;;5032520;28;20052;-88
2023/04/11 06:29:31;;;;;;;11.05;1.70;;;5.30;99.90;;;;;;5033525;28;20033;-88
2023/04/11 06:31:58;;;;;;;10.90;2.30;;;5.30;99.90;;;;;;5033211;28;20037;-87
2023/04/11 06:34:23;;;;;;;15.77;1.83;;;5.30;99.90;;;;;;5033604;28;20025;-88
2023/04/11 06:36:49;;;;;;;15.50;1.85;;;5.30;99.90;;;;;;5033424;28;20063;-87
2023/04/11 06:39:19;;;;;;;16.73;2.40;;;5.40;99.90;;;;;;5033303;28;20049;-88
2023/04/11 06:41:46;;;;;;;19.42;2.20;;;5.40;99.90;;;;;;5032187;28;20060;-87
2023/04/11 06:44:12;;;;;;;12.98;2.10;;;5.40;99.90;;;;;;5033278;28;20025;-87
2023/04/11 06:46:37;;;;;;;10.90;2.40;;;5.40;99.90;;;;;;5019695;28;20110;-88
2023/04/11 06:49:06;;;;;;;9.88;1.67;;;5.40;99.90;;;;;;5012455;28;20038;-87
2023/04/11 06:51:32;;;;;;;12.25;2.13;;;5.40;99.90;;;;;;5012683;28;20601;-88
2023/04/11 06:53:57;;;;;;;12.35;1.70;;;5.50;99.90;;;;;;5010742;28;20030;-88
2023/04/11 06:56:23;;;;;;;7.55;1.90;;;5.50;99.90;;;;;;5010968;28;20029;-87
2023/04/11 06:58:49;;;;;;;10.48;1.50;;;5.50;99.90;;;;;;5008616;28;20029;-87
2023/04/11 07:01:15;;;;;;;13.13;2.50;;;5.50;99.90;;;;;;5011156;28;20066;-87
2023/04/11 07:03:40;;;;;;;12.30;2.08;;;5.60;99.90;;;;;;5009250;28;20475;-86
2023/04/11 07:06:06;;;;;;;11.88;2.08;;;5.60;99.90;;;;;;5011065;28;20026;-86
2023/04/11 07:08:32;;;;;;;16.02;2.00;;;5.70;99.90;;;;;;5011853;28;20025;-87
2023/04/11 07:10:58;;;;;;;11.23;2.10;;;5.70;99.90;;;;;;5012195;28;20026;-87
2023/04/11 07:13:24;;;;;;;8.45;1.63;;;5.80;99.90;;;;;;5018213;28;20030;-86
2023/04/11 07:15:49;;;;;;;13.07;1.70;;;5.90;99.90;;;;;;5018565;28;20466;-86
2023/04/11 07:18:15;;;;;;;8.95;2.10;;;5.90;99.90;;;;;;5016556;28;20026;-88
2023/04/11 07:20:41;;;;;;;11.20;1.75;;;6.00;99.90;;;;;;5016766;28;20021;-87
2023/04/11 07:23:06;;;;;;;12.73;2.25;;;6.00;99.90;;;;;;5018011;28;20026;-87
2023/04/11 07:25:32;;;;;;;11.02;1.23;;;6.10;99.90;;;;;;5018311;28;20018;-86
2023/04/11 07:28:06;;;;;;;16.30;2.25;;;6.10;99.90;;;;;;5018501;28;20376;-86
2023/04/11 07:30:32;;;;;;;13.25;2.15;;;6.10;99.90;;;;;;5015788;28;20032;-86
2023/04/11 07:32:57;;;;;;;12.02;2.33;;;6.20;99.90;;;;;;5018409;28;20022;-87
2023/04/11 07:35:23;;;;;;;13.73;1.85;;;6.20;99.90;;;;;;5019081;28;20080;-85
2023/04/11 07:37:49;;;;;;;11.32;1.77;;;6.30;99.90;;;;;;5017303;28;20092;-87
2023/04/11 07:40:15;;;;;;;14.35;2.70;;;6.30;99.90;;;;;;5018007;28;20705;-88
2023/04/11 07:42:41;;;;;;;12.05;2.65;;;6.40;99.90;;;;;;5019232;28;20026;-88
2023/04/11 07:45:07;;;;;;;11.48;1.67;;;6.40;99.90;;;;;;5018490;28;20022;-89
2023/04/11 07:47:33;;;;;;;11.18;1.77;;;6.40;99.90;;;;;;5019593;28;20022;-87
2023/04/11 07:49:58;;;;;;;10.48;1.83;;;6.50;99.90;;;;;;5019560;28;20446;-89
2023/04/11 07:52:24;;;;;;;16.30;2.00;;;6.50;99.90;;;;;;5018641;28;20476;-88
2023/04/11 07:54:51;;;;;;;8.30;1.50;;;6.60;99.90;;;;;;5018305;28;20018;-87
2023/04/11 07:57:16;;;;;;;7.85;1.50;;;6.60;99.90;;;;;;5019042;28;20388;-88
2023/04/11 07:59:42;;;;;;;23.40;2.42;;;6.70;99.90;;;;;;5019235;28;20026;-88
2023/04/11 08:02:08;;;;;;;10.55;1.55;;;6.70;99.90;;;;;;5017729;28;20034;-86
2023/04/11 08:04:35;;;;;;;11.82;1.27;;;6.80;99.90;;;;;;5017426;28;20021;-90
2023/04/11 08:07:01;;;;;;;10.43;1.48;;;6.80;99.90;;;;;;5018297;28;20068;-89
2023/04/11 08:09:27;;;;;;;13.77;2.17;;;6.90;99.90;;;;;;5019305;28;20112;-87
2023/04/11 08:11:53;;;;;;;11.20;1.70;;;6.90;99.90;;;;;;5018281;28;20061;-89
2023/04/11 08:14:19;;;;;;;9.20;1.27;;;7.00;99.90;;;;;;5019971;28;20101;-88
2023/04/11 08:16:45;;;;;;;5.97;1.08;;;7.00;99.90;;;;;;5019643;28;20053;-86
2023/04/11 08:19:10;;;;;;;8.98;1.42;;;7.10;99.90;;;;;;5018890;28;20108;-90
2023/04/11 08:21:40;;;;;;;12.00;1.65;;;7.10;99.90;;;;;;5019006;28;20064;-87
2023/04/11 08:24:06;;;;;;;10.68;1.30;;;7.10;99.90;;;;;;5013569;28;20026;-86
2023/04/11 08:26:31;;;;;;;15.60;2.78;;;7.20;99.90;;;;;;5015165;28;20061;-88
2023/04/11 08:28:57;;;;;;;10.35;1.27;;;7.30;99.90;;;;;;5015168;28;20026;-88
2023/04/11 08:31:23;;;;;;;9.95;2.05;;;7.30;99.90;;;;;;5016195;28;20407;-88
2023/04/11 08:33:49;;;;;;;7.75;1.50;;;7.40;99.90;;;;;;5015816;28;20014;-89
2023/04/11 08:36:15;;;;;;;12.18;1.25;;;7.50;99.90;;;;;;5015871;28;20598;-89
2023/04/11 08:38:40;;;;;;;7.95;1.60;;;7.50;99.90;;;;;;5015448;28;20045;-87
2023/04/11 08:41:06;;;;;;;13.75;1.90;;;7.60;99.90;;;;;;5014777;28;20030;-86
2023/04/11 08:43:33;;;;;;;8.30;1.63;;;7.70;99.90;;;;;;5014927;28;20530;-87
2023/04/11 08:46:02;;;;;;;9.10;1.60;;;7.80;99.90;;;;;;5014431;28;20076;-87
2023/04/11 08:48:29;;;;;;;12.40;1.67;;;7.90;99.90;;;;;;5015582;28;20022;-88
2023/04/11 08:50:55;;;;;;;12.10;1.63;;;8.00;99.90;;;;;;5014968;28;20053;-86
2023/04/11 08:53:23;;;;;;;5.70;1.27;;;8.00;99.90;;;;;;5015372;28;20499;-88
2023/04/11 08:55:49;;;;;;;8.13;2.17;;;8.10;99.90;;;;;;5028285;28;20060;-86
2023/04/11 08:58:15;;;;;;;11.85;1.80;;;8.20;99.90;;;;;;5013413;28;20032;-87
2023/04/11 09:00:41;;;;;;;12.45;1.80;;;8.40;99.90;;;;;;5014428;28;20125;-86
2023/04/11 09:03:08;;;;;;;5.00;1.10;;;8.50;99.90;;;;;;5015326;28;20054;-87
2023/04/11 09:05:39;;;;;;;15.55;2.00;;;8.60;99.90;;;;;;5014017;28;20088;-87
2023/04/11 09:08:10;;;;;;;11.75;1.80;;;8.60;99.90;;;;;;5015070;28;20057;-87
2023/04/11 09:10:37;;;;;;;7.68;1.90;;;8.80;99.90;;;;;;5014144;28;20032;-86
2023/04/11 09:13:23;;;;;;;12.48;1.88;;;8.90;99.90;;;;;;5013919;28;20593;-85
2023/04/11 09:16:05;;;;;;;13.70;2.25;;;9.10;99.90;;;;;;5013719;28;20026;-87
2023/04/11 09:18:35;;;;;;;9.70;1.55;;;9.30;99.90;;;;;;5011534;28;20036;-86
2023/04/11 09:21:04;;;;;;;7.75;1.38;;;9.40;99.90;;;;;;5012858;28;20018;-86
2023/04/11 09:23:30;;;;;;;10.68;1.73;;;9.50;99.40;;;;;;5011345;28;20052;-87
2023/04/11 09:25:56;;;;;;;17.13;3.35;;;9.60;98.10;;;;;;5012432;28;20117;-86
2023/04/11 09:28:23;;;;;;;9.93;1.40;;;9.80;97.60;;;;;;5013480;28;20057;-86
2023/04/11 09:30:53;;;;;;;10.88;2.00;;;9.90;96.50;;;;;;5013789;28;20037;-87
2023/04/11 09:33:28;;;;;;;6.65;1.30;;;10.00;95.20;;;;;;5014062;28;20080;-86
2023/04/11 09:35:55;;;;;;;6.65;1.10;;;10.00;93.70;;;;;;5005434;28;20026;-88
2023/04/11 09:38:35;;;;;;;9.95;1.27;;;10.10;92.80;;;;;;5013590;28;20041;-88
2023/04/11 09:41:03;;;;;;;3.63;1.17;;;10.20;92.10;;;;;;5011658;28;20480;-87
2023/04/11 09:43:52;;;;;;;6.45;1.40;;;10.30;91.50;;;;;;5014025;28;20484;-88
2023/04/11 09:46:19;;;;;;;8.48;1.65;;;10.50;90.90;;;;;;5012008;28;20438;-88
2023/04/11 09:48:48;;;;;;;6.85;1.42;;;10.60;90.00;;;;;;5016983;28;20014;-86
2023/04/11 09:51:15;;;;;;;5.28;1.10;;;10.70;90.00;;;;;;5020701;28;20057;-88
2023/04/11 09:53:42;;;;;;;11.85;1.55;;;10.80;88.90;;;;;;5019153;28;20026;-87
2023/04/11 09:56:08;;;;;;;5.93;1.00;;;10.90;88.60;;;;;;5017962;28;20025;-88
2023/04/11 09:58:36;;;;;;;9.63;1.25;;;11.00;87.60;;;;;;5018126;28;20173;-89
2023/04/11 10:01:06;;;;;;;11.13;1.48;;;11.00;87.00;;;;;;5015896;28;20034;-89
2023/04/11 10:03:37;;;;;;;5.35;0.93;;;11.00;86.40;;;;;;5016911;28;20365;-88
2023/04/11 10:06:07;;;;;;;4.30;0.90;;;11.10;85.50;;;;;;5014909;28;20391;-88
2023/04/11 10:08:35;;;;;;;7.07;1.30;;;11.20;83.50;;;;;;5015869;28;20419;-88
2023/04/11 10:11:03;;;;;;;6.80;1.20;;;11.40;83.70;;;;;;5013308;28;20065;-88
2023/04/11 10:13:45;;;;;;;10.80;1.17;;;11.50;82.90;;;;;;5014317;28;20030;-88
2023/04/11 10:16:17;;;;;;;5.93;0.70;;;11.60;80.90;;;;;;4994902;28;20022;-89
2023/04/11 10:18:52;;;;;;;5.05;0.63;;;11.80;79.70;;;;;;4994244;28;20030;-89
2023/04/11 10:21:29;;;;;;;5.28;1.27;;;11.90;78.90;;;;;;4994612;28;20034;-89
2023/04/11 10:24:17;;;;;;;11.48;1.52;;;12.00;79.00;;;;;;5013504;28;20029;-90
2023/04/11 10:27:02;;;;;;;5.28;0.98;;;12.30;78.90;;;;;;5011445;28;20519;-89
2023/04/11 10:29:31;;;;;;;5.47;0.98;;;12.50;78.50;;;;;;5013961;28;20026;-88
2023/04/11 10:32:10;;;;;;;6.70;1.00;;;12.60;77.40;;;;;;5011716;28;20391;-87
2023/04/11 10:34:37;;;;;;;6.38;0.68;;;12.70;77.70;;;;;;5011114;28;20018;-88
2023/04/11 10:37:10;;;;;;;5.55;0.82;;;12.90;77.20;;;;;;5011016;28;20029;-88
2023/04/11 10:39:59;;;;;;;4.97;0.90;;;13.00;75.90;;;;;;5012804;28;20014;-88
2023/04/11 10:42:32;;;;;;;9.93;1.08;;;13.20;75.00;;;;;;5011397;28;20038;-88
2023/04/11 10:45:28;;;;;;;6.15;0.80;;;13.40;75.30;;;;;;5010011;28;20041;-88
2023/04/11 10:48:09;;;;;;;5.32;1.10;;;13.50;74.00;;;;;;5008726;28;20050;-90
2023/04/11 10:50:39;;;;;;;5.53;1.23;;;13.40;73.30;;;;;;5015081;28;20111;-89
2023/04/11 10:53:07;;;;;;;5.07;0.80;;;13.40;73.70;;;;;;5014702;28;20550;-90
2023/04/11 10:55:43;;;;;;;5.18;1.00;;;13.50;73.10;;;;;;5014235;28;20037;-89
2023/04/11 10:58:20;;;;;;;8.48;1.42;;;13.50;73.20;;;;;;5013002;28;20034;-90
2023/04/11 11:00:49;;;;;;;6.10;1.10;;;13.60;73.60;;;;;;5014016;28;20076;-90
2023/04/11 11:03:20;;;;;;;4.18;0.68;;;13.80;74.60;;;;;;5011138;28;20103;-89
2023/04/11 11:06:00;;;;;;;4.30;1.00;;;14.00;73.40;;;;;;5012695;28;20037;-88
2023/04/11 11:08:32;;;;;;;6.25;1.20;;;14.20;73.40;;;;;;5011335;28;20438;-89
2023/04/11 11:11:05;;;;;;;7.28;1.10;;;14.50;72.20;;;;;;5012496;28;20033;-90
2023/04/11 11:13:41;;;;;;;10.00;1.85;;;14.40;71.50;;;;;;5011534;28;20030;-88
2023/04/11 11:16:08;;;;;;;7.53;1.10;;;14.10;71.10;;;;;;5012729;28;20114;-88
2023/04/11 11:18:34;;;;;;;5.32;0.85;;;13.80;71.70;;;;;;5012524;28;20026;-89
2023/04/11 11:21:00;;;;;;;7.40;1.23;;;13.50;72.60;;;;;;5012600;28;20026;-89
2023/04/11 11:23:26;;;;;;;6.20;1.35;;;13.50;73.40;;;;;;5009986;28;20118;-88
2023/04/11 11:25:53;;;;;;;5.05;0.93;;;13.70;74.00;;;;;;5011717;28;20117;-89
2023/04/11 11:28:19;;;;;;;5.65;1.00;;;13.80;73.60;;;;;;5011515;28;20037;-88
2023/04/11 11:30:54;;;;;;;5.82;1.10;;;13.70;73.30;;;;;;5012426;28;20034;-87
2023/04/11 11:33:22;;;;;;;4.15;0.95;;;13.70;72.90;;;;;;5004082;28;20429;-86
2023/04/11 11:35:59;;;;;;;9.85;1.50;;;13.60;73.40;;;;;;5013592;28;20053;-85
2023/04/11 11:38:27;;;;;;;7.45;1.25;;;13.60;73.20;;;;;;5013003;28;20057;-86
2023/04/11 11:40:54;;;;;;;8.75;1.00;;;13.50;73.70;;;;;;5012291;28;20435;-87
2023/04/11 11:43:20;;;;;;;4.72;1.10;;;13.50;74.30;;;;;;5012772;28;20038;-87
2023/04/11 11:45:46;;;;;;;10.23;1.30;;;13.40;74.70;;;;;;5012117;28;20018;-87
2023/04/11 11:48:22;;;;;;;7.80;1.10;;;13.20;74.90;;;;;;5012288;28;20109;-86
2023/04/11 11:50:55;;;;;;;7.95;1.33;;;13.10;75.50;;;;;;5013728;28;20033;-87
2023/04/11 11:53:21;;;;;;;6.18;1.02;;;13.20;76.50;;;;;;5013136;28;20109;-88
2023/04/11 11:55:47;;;;;;;7.53;1.38;;;13.40;77.00;;;;;;5011641;28;20526;-86
2023/04/11 11:58:13;;;;;;;8.18;1.10;;;13.50;76.50;;;;;;5014133;28;20057;-86
2023/04/11 12:00:40;;;;;;;11.75;1.67;;;13.60;76.70;;;;;;5014735;28;20100;-85
2023/04/11 12:03:08;;;;;;;11.15;1.42;;;13.70;76.10;;;;;;5032331;28;20024;-90
2023/04/11 12:05:34;;;;;;;5.20;1.52;;;13.70;75.90;;;;;;5039962;28;20052;-89
2023/04/11 12:08:03;;;;;;;7.38;1.60;;;13.60;75.80;;;;;;5039950;28;20034;-92
2023/04/11 12:10:55;;;;;;;9.57;1.63;;;13.60;75.80;;;;;;5039614;28;20030;-90
2023/04/11 12:13:26;;;;;;;5.70;1.00;;;13.60;76.10;;;;;;5037680;28;20049;-91
2023/04/11 12:15:54;;;;;;;8.63;1.20;;;13.60;76.40;;;;;;5038108;28;20018;-89
2023/04/11 12:18:25;;;;;;;6.25;1.15;;;13.70;77.00;;;;;;5038831;28;20040;-89
2023/04/11 12:20:53;;;;;;;;;;;13.70;76.90;;;;;;5039113;28;20041;-88
2023/04/11 12:23:20;;;;;;;6.68;1.23;;;13.70;76.60;;;;;;5038889;28;19936;-88
2023/04/11 12:25:46;;;;;;;8.75;1.23;;;13.60;76.70;;;;;;5039073;28;20052;-88
2023/04/11 12:28:14;;;;;;;5.75;1.40;;;13.60;77.40;;;;;;5039082;28;20028;-89
2023/04/11 12:30:40;;;;;;;5.68;1.10;;;13.60;77.90;;;;;;5038648;28;20071;-88
2023/04/11 12:33:06;;;;;;;7.53;1.63;;;13.60;77.20;;;;;;5039899;28;20014;-88
2023/04/11 12:35:32;;;;;;;7.28;1.48;;;13.50;77.80;;;;;;5040196;28;20057;-89
2023/04/11 12:38:00;;;;;;;8.23;1.10;;;13.50;78.50;;;;;;5039922;28;20184;-86
2023/04/11 12:40:28;;;;;;;5.82;1.10;;;13.50;78.50;;;;;;5040068;28;20018;-88
2023/04/11 12:43:03;;;;;;;7.13;1.30;;;13.30;77.40;;;;;;5039701;28;20076;-87
2023/04/11 12:45:29;;;;;;;7.50;1.50;;;13.10;77.60;;;;;;5039915;28;20034;-89
2023/04/11 12:47:54;;;;;;;5.93;1.30;;;13.00;77.90;;;;;;5040338;28;20010;-90
2023/04/11 12:50:23;;;;;;;10.90;1.40;;;12.90;77.80;;;;;;5039470;28;20034;-89
2023/04/11 12:52:48;;;;;;;4.20;1.23;;;12.80;78.00;;;;;;5039757;28;20037;-90